Time;durP1;ratioP1;P1;durP2;ratioP2;P2;SDS_P1;SDS_P2;PMS_P1;PMS_P2;Temp;Humidity;BMP_temperature;BMP_pressure;BME280_temperature;BME280_humidity;BME280_pressure;Samples;Min_cycle;Max_cycle;Signal;HPM_P1;HPM_P2
2023/12/10 00:00:38;;;;;;;;;;;;;;;;;;4164772;28;19925;-62
2023/12/10 00:02:39;;;;;;;;;;;;;;;;;;4165052;28;19921;-62
2023/12/10 00:04:51;;;;;;;;;;;;;;;;;;4158524;28;19921;-61
2023/12/10 00:06:52;;;;;;;;;;;;;;;;;;4161743;28;20013;-61
2023/12/10 00:08:54;;;;;;;;;;;;;;;;;;4155502;28;20375;-61
2023/12/10 00:10:55;;;;;;;;;;;;;;;;;;4172934;28;20377;-61
2023/12/10 00:12:57;;;;;;;;;;;;;;;;;;4145968;28;20397;-61
2023/12/10 00:14:58;;;;;;;;;;;;;;;;;;4157438;28;19956;-62
2023/12/10 00:17:00;;;;;;;;;;;;;;;;;;4148497;28;19961;-62
2023/12/10 00:19:01;;;;;;;;;;;;;;;;;;4131201;28;20397;-61
2023/12/10 00:21:03;;;;;;;;;;;;;;;;;;4148569;28;19925;-62
2023/12/10 00:23:07;;;;;;;;;;;;;;;;;;4148520;28;19922;-61
2023/12/10 00:25:09;;;;;;;;;;;;;;;;;;4148502;28;19925;-61
2023/12/10 00:27:11;;;;;;;;;;;;;;;;;;4148484;28;20289;-61
2023/12/10 00:29:12;;;;;;;;;;;;;;;;;;4148400;28;20382;-61
2023/12/10 00:31:14;;;;;;;;;;;;;;;;;;4148473;28;19972;-62
2023/12/10 00:33:15;;;;;;;;;;;;;;;;;;4164289;28;19925;-62
2023/12/10 00:35:17;;;;;;;;;;;;;;;;;;4180487;28;19920;-61
2023/12/10 00:37:19;;;;;;;;;;;;;;;;;;4181211;28;19931;-61
2023/12/10 00:39:20;;;;;;;;;;;;;;;;;;4168308;28;19931;-61
2023/12/10 00:41:22;;;;;;;;;;;;;;;;;;4164590;28;19925;-62
2023/12/10 00:43:23;;;;;;;;;;;;;;;;;;4164477;28;19921;-61
2023/12/10 00:45:25;;;;;;;;;;;;;;;;;;4164597;28;19928;-61
2023/12/10 00:47:26;;;;;;;;;;;;;;;;;;4164561;28;20285;-61
2023/12/10 00:49:28;;;;;;;;;;;;;;;;;;4164504;28;20266;-61
2023/12/10 00:51:29;;;;;;;;;;;;;;;;;;4164351;28;19967;-61
2023/12/10 00:53:31;;;;;;;;;;;;;;;;;;4169325;28;19921;-61
2023/12/10 00:55:32;;;;;;;;;;;;;;;;;;4181100;28;20004;-61
2023/12/10 00:57:34;;;;;;;;;;;;;;;;;;4180788;28;19920;-62
2023/12/10 00:59:35;;;;;;;;;;;;;;;;;;4159070;28;19925;-62
2023/12/10 01:01:37;;;;;;;;;;;;;;;;;;4150587;28;19975;-62
2023/12/10 01:03:39;;;;;;;;;;;;;;;;;;4147965;28;20012;-61
2023/12/10 01:05:40;;;;;;;;;;;;;;;;;;4148001;28;19921;-61
2023/12/10 01:07:42;;;;;;;;;;;;;;;;;;4148199;28;20020;-61
2023/12/10 01:09:44;;;;;;;;;;;;;;;;;;4172132;28;20369;-62
2023/12/10 01:11:46;;;;;;;;;;;;;;;;;;4159013;28;19925;-62
2023/12/10 01:13:47;;;;;;;;;;;;;;;;;;4148193;28;19922;-61
2023/12/10 01:15:49;;;;;;;;;;;;;;;;;;4147998;28;19997;-61
2023/12/10 01:17:50;;;;;;;;;;;;;;;;;;4148188;28;20025;-61
2023/12/10 01:19:52;;;;;;;;;;;;;;;;;;4148022;28;20008;-61
2023/12/10 01:21:53;;;;;;;;;;;;;;;;;;4148102;28;20262;-62
2023/12/10 01:23:55;;;;;;;;;;;;;;;;;;4148031;28;19921;-62
2023/12/10 01:25:57;;;;;;;;;;;;;;;;;;4147978;28;19921;-61
2023/12/10 01:27:58;;;;;;;;;;;;;;;;;;4151568;28;20277;-61
2023/12/10 01:30:00;;;;;;;;;;;;;;;;;;4164266;28;19925;-61
2023/12/10 01:32:01;;;;;;;;;;;;;;;;;;4164242;28;20416;-62
2023/12/10 01:34:03;;;;;;;;;;;;;;;;;;4169773;28;19921;-61
2023/12/10 01:36:05;;;;;;;;;;;;;;;;;;4180582;28;20300;-61
2023/12/10 01:38:06;;;;;;;;;;;;;;;;;;4180737;28;19924;-61
2023/12/10 01:40:08;;;;;;;;;;;;;;;;;;4165443;28;19925;-61
2023/12/10 01:42:10;;;;;;;;;;;;;;;;;;4164221;28;20321;-61
2023/12/10 01:44:12;;;;;;;;;;;;;;;;;;4164106;28;19971;-61
2023/12/10 01:46:13;;;;;;;;;;;;;;;;;;4164101;28;20454;-61
2023/12/10 01:48:15;;;;;;;;;;;;;;;;;;4164782;28;19971;-61
2023/12/10 01:50:18;;;;;;;;;;;;;;;;;;4164061;28;19925;-62
2023/12/10 01:52:22;;;;;;;;;;;;;;;;;;4159561;28;20294;-62
2023/12/10 01:54:23;;;;;;;;;;;;;;;;;;4171687;28;20157;-61
2023/12/10 01:56:24;;;;;;;;;;;;;;;;;;4180591;28;19924;-62
2023/12/10 01:58:26;;;;;;;;;;;;;;;;;;4179974;28;20404;-61
2023/12/10 02:00:27;;;;;;;;;;;;;;;;;;4180571;28;19925;-61
2023/12/10 02:02:29;;;;;;;;;;;;;;;;;;4180771;28;20007;-62
2023/12/10 02:04:31;;;;;;;;;;;;;;;;;;4180532;22;19921;-66
2023/12/10 02:06:32;;;;;;;;;;;;;;;;;;4163831;28;19971;-66
2023/12/10 02:08:34;;;;;;;;;;;;;;;;;;4165021;28;19927;-66
2023/12/10 02:10:36;;;;;;;;;;;;;;;;;;4162887;28;20470;-66
2023/12/10 02:12:37;;;;;;;;;;;;;;;;;;4181516;28;20374;-67
2023/12/10 02:14:39;;;;;;;;;;;;;;;;;;4183399;28;19975;-66
2023/12/10 02:16:40;;;;;;;;;;;;;;;;;;4165902;28;19921;-66
2023/12/10 02:18:42;;;;;;;;;;;;;;;;;;4183639;28;19967;-67
2023/12/10 02:20:43;;;;;;;;;;;;;;;;;;4183565;28;19967;-66
2023/12/10 02:22:45;;;;;;;;;;;;;;;;;;4183371;28;19921;-65
2023/12/10 02:24:46;;;;;;;;;;;;;;;;;;4175127;28;19922;-66
2023/12/10 02:26:48;;;;;;;;;;;;;;;;;;4166805;28;19921;-66
2023/12/10 02:28:49;;;;;;;;;;;;;;;;;;4166762;28;19921;-66
2023/12/10 02:30:51;;;;;;;;;;;;;;;;;;4166698;28;20004;-66
2023/12/10 02:32:52;;;;;;;;;;;;;;;;;;4166893;28;20285;-66
2023/12/10 02:34:54;;;;;;;;;;;;;;;;;;4166491;28;20365;-66
2023/12/10 02:36:55;;;;;;;;;;;;;;;;;;4166643;28;20015;-66
2023/12/10 02:38:57;;;;;;;;;;;;;;;;;;4148929;28;19952;-66
2023/12/10 02:40:58;;;;;;;;;;;;;;;;;;4166446;28;19963;-66
2023/12/10 02:43:00;;;;;;;;;;;;;;;;;;4166450;28;19986;-66
2023/12/10 02:45:02;;;;;;;;;;;;;;;;;;4166666;28;19929;-66
2023/12/10 02:47:03;;;;;;;;;;;;;;;;;;4166644;28;19921;-66
2023/12/10 02:49:05;;;;;;;;;;;;;;;;;;4165521;28;19924;-66
2023/12/10 02:51:06;;;;;;;;;;;;;;;;;;4166307;28;20369;-66
2023/12/10 02:53:08;;;;;;;;;;;;;;;;;;4168108;28;20277;-65
2023/12/10 02:55:09;;;;;;;;;;;;;;;;;;4182780;28;19925;-65
2023/12/10 02:57:11;;;;;;;;;;;;;;;;;;4182873;28;19983;-65
2023/12/10 02:59:12;;;;;;;;;;;;;;;;;;4182915;28;19963;-66
2023/12/10 03:01:14;;;;;;;;;;;;;;;;;;4182741;28;19951;-66
2023/12/10 03:03:15;;;;;;;;;;;;;;;;;;4168151;28;19980;-65
2023/12/10 03:05:17;;;;;;;;;;;;;;;;;;4152347;28;19931;-66
2023/12/10 03:07:18;;;;;;;;;;;;;;;;;;4149963;28;20399;-66
2023/12/10 03:09:20;;;;;;;;;;;;;;;;;;4173116;28;20284;-66
2023/12/10 03:11:21;;;;;;;;;;;;;;;;;;4182463;28;20445;-65
2023/12/10 03:13:23;;;;;;;;;;;;;;;;;;4164709;28;19943;-66
2023/12/10 03:15:24;;;;;;;;;;;;;;;;;;4182592;28;19970;-70
2023/12/10 03:17:25;;;;;;;;;;;;;;;;;;4182471;28;20380;-69
2023/12/10 03:19:27;;;;;;;;;;;;;;;;;;4182461;28;20206;-70
2023/12/10 03:21:29;;;;;;;;;;;;;;;;;;4170411;28;19928;-69
2023/12/10 03:23:30;;;;;;;;;;;;;;;;;;4165609;28;19951;-69
2023/12/10 03:25:32;;;;;;;;;;;;;;;;;;4165476;28;20364;-69
2023/12/10 03:27:33;;;;;;;;;;;;;;;;;;4166058;28;19952;-70
2023/12/10 03:29:34;;;;;;;;;;;;;;;;;;4165900;28;19921;-69
2023/12/10 03:31:36;;;;;;;;;;;;;;;;;;4165845;28;19921;-69
2023/12/10 03:33:37;;;;;;;;;;;;;;;;;;4167787;28;19936;-69
2023/12/10 03:35:39;;;;;;;;;;;;;;;;;;4172854;28;19925;-69
2023/12/10 03:37:40;;;;;;;;;;;;;;;;;;4165982;28;19971;-69
2023/12/10 03:39:42;;;;;;;;;;;;;;;;;;4165529;28;19991;-69
2023/12/10 03:41:43;;;;;;;;;;;;;;;;;;4165577;28;19921;-70
2023/12/10 03:43:45;;;;;;;;;;;;;;;;;;4165501;28;19921;-70
2023/12/10 03:45:46;;;;;;;;;;;;;;;;;;4165486;28;19921;-70
2023/12/10 03:47:48;;;;;;;;;;;;;;;;;;4165508;28;20046;-69
2023/12/10 03:49:49;;;;;;;;;;;;;;;;;;4147852;28;19922;-69
2023/12/10 03:51:51;;;;;;;;;;;;;;;;;;4165453;28;19928;-69
2023/12/10 03:53:52;;;;;;;;;;;;;;;;;;4165582;28;19924;-69
2023/12/10 03:55:54;;;;;;;;;;;;;;;;;;4165517;28;19920;-69
2023/12/10 03:57:55;;;;;;;;;;;;;;;;;;4165566;28;19975;-69
2023/12/10 03:59:57;;;;;;;;;;;;;;;;;;4164360;28;19975;-69
2023/12/10 04:01:58;;;;;;;;;;;;;;;;;;4148908;28;19926;-69
2023/12/10 04:04:00;;;;;;;;;;;;;;;;;;4148626;28;19968;-70
2023/12/10 04:06:02;;;;;;;;;;;;;;;;;;4148818;28;19922;-69
2023/12/10 04:08:03;;;;;;;;;;;;;;;;;;4151367;28;20006;-69
2023/12/10 04:10:05;;;;;;;;;;;;;;;;;;4181673;28;19920;-68
2023/12/10 04:12:06;;;;;;;;;;;;;;;;;;4168177;28;20407;-69
2023/12/10 04:14:09;;;;;;;;;;;;;;;;;;4148894;28;19932;-69
2023/12/10 04:16:10;;;;;;;;;;;;;;;;;;4148601;28;19928;-69
2023/12/10 04:18:11;;;;;;;;;;;;;;;;;;4164207;28;20380;-69
2023/12/10 04:20:13;;;;;;;;;;;;;;;;;;4165158;28;19944;-69
2023/12/10 04:22:14;;;;;;;;;;;;;;;;;;4165338;28;19952;-69
2023/12/10 04:24:16;;;;;;;;;;;;;;;;;;4164936;28;19921;-69
2023/12/10 04:26:18;;;;;;;;;;;;;;;;;;4165171;28;20419;-66
2023/12/10 04:28:19;;;;;;;;;;;;;;;;;;4147627;28;20369;-66
2023/12/10 04:30:24;;;;;;;;;;;;;;;;;;4131012;28;20314;-65
2023/12/10 04:32:25;;;;;;;;;;;;;;;;;;4147440;28;19922;-65
2023/12/10 04:34:27;;;;;;;;;;;;;;;;;;4173699;28;19921;-65
2023/12/10 04:36:28;;;;;;;;;;;;;;;;;;4165127;28;19925;-66
2023/12/10 04:38:30;;;;;;;;;;;;;;;;;;4165055;28;20356;-65
2023/12/10 04:40:31;;;;;;;;;;;;;;;;;;4164737;28;19963;-66
2023/12/10 04:42:33;;;;;;;;;;;;;;;;;;4164856;28;19952;-65
2023/12/10 04:44:34;;;;;;;;;;;;;;;;;;4164718;28;19921;-66
2023/12/10 04:46:36;;;;;;;;;;;;;;;;;;4164731;28;19943;-66
2023/12/10 04:48:37;;;;;;;;;;;;;;;;;;4164681;28;19925;-65
2023/12/10 04:50:40;;;;;;;;;;;;;;;;;;4147175;28;19925;-65
2023/12/10 04:52:41;;;;;;;;;;;;;;;;;;4164842;28;19921;-66
2023/12/10 04:54:43;;;;;;;;;;;;;;;;;;4164683;28;19921;-65
2023/12/10 04:56:44;;;;;;;;;;;;;;;;;;4159324;28;19925;-65
2023/12/10 04:58:46;;;;;;;;;;;;;;;;;;4148294;28;19921;-65
2023/12/10 05:00:47;;;;;;;;;;;;;;;;;;4147960;28;19921;-65
2023/12/10 05:02:49;;;;;;;;;;;;;;;;;;4148201;28;19929;-65
2023/12/10 05:04:50;;;;;;;;;;;;;;;;;;4148067;28;19929;-65
2023/12/10 05:06:52;;;;;;;;;;;;;;;;;;4130770;28;19925;-65
2023/12/10 05:08:53;;;;;;;;;;;;;;;;;;4164190;28;19924;-65
2023/12/10 05:10:55;;;;;;;;;;;;;;;;;;4180861;28;19927;-65
2023/12/10 05:12:57;;;;;;;;;;;;;;;;;;4177582;28;19928;-65
2023/12/10 05:14:58;;;;;;;;;;;;;;;;;;4164518;28;19968;-65
2023/12/10 05:17:00;;;;;;;;;;;;;;;;;;4164545;28;19943;-65
2023/12/10 05:19:01;;;;;;;;;;;;;;;;;;4164433;28;19991;-66
2023/12/10 05:21:03;;;;;;;;;;;;;;;;;;4164179;28;19964;-65
2023/12/10 05:23:04;;;;;;;;;;;;;;;;;;4164452;28;19921;-65
2023/12/10 05:25:07;;;;;;;;;;;;;;;;;;4164266;28;20440;-66
2023/12/10 05:27:08;;;;;;;;;;;;;;;;;;4164398;28;19975;-66
2023/12/10 05:29:10;;;;;;;;;;;;;;;;;;4164382;28;20296;-66
2023/12/10 05:31:11;;;;;;;;;;;;;;;;;;4161344;28;20296;-66
2023/12/10 05:33:13;;;;;;;;;;;;;;;;;;4154532;28;19924;-66
2023/12/10 05:35:14;;;;;;;;;;;;;;;;;;4164570;28;19920;-65
2023/12/10 05:37:16;;;;;;;;;;;;;;;;;;4164512;28;19925;-65
2023/12/10 05:39:17;;;;;;;;;;;;;;;;;;4164324;28;19921;-65
2023/12/10 05:41:19;;;;;;;;;;;;;;;;;;4158981;28;20439;-66
2023/12/10 05:43:20;;;;;;;;;;;;;;;;;;4163760;28;20289;-65
2023/12/10 05:45:21;;;;;;;;;;;;;;;;;;4162476;28;19925;-66
2023/12/10 05:47:23;;;;;;;;;;;;;;;;;;4159488;28;19925;-65
2023/12/10 05:49:24;;;;;;;;;;;;;;;;;;4167358;28;19921;-65
2023/12/10 05:51:26;;;;;;;;;;;;;;;;;;4149651;28;19971;-65
2023/12/10 05:53:28;;;;;;;;;;;;;;;;;;4165073;28;19928;-65
2023/12/10 05:55:29;;;;;;;;;;;;;;;;;;4167124;28;19947;-66
2023/12/10 05:57:31;;;;;;;;;;;;;;;;;;4167753;28;19967;-65
2023/12/10 05:59:32;;;;;;;;;;;;;;;;;;4149773;28;19921;-65
2023/12/10 06:01:34;;;;;;;;;;;;;;;;;;4166739;28;19921;-66
2023/12/10 06:03:35;;;;;;;;;;;;;;;;;;4166886;28;19921;-65
2023/12/10 06:05:37;;;;;;;;;;;;;;;;;;4167128;28;19927;-66
2023/12/10 06:07:39;;;;;;;;;;;;;;;;;;4167393;28;19929;-65
2023/12/10 06:09:40;;;;;;;;;;;;;;;;;;4174544;28;19921;-66
2023/12/10 06:11:42;;;;;;;;;;;;;;;;;;4166923;28;20396;-66
2023/12/10 06:13:44;;;;;;;;;;;;;;;;;;4166984;28;19967;-66
2023/12/10 06:15:48;;;;;;;;;;;;;;;;;;4166719;28;19986;-65
2023/12/10 06:17:49;;;;;;;;;;;;;;;;;;4178384;28;19928;-65
2023/12/10 06:19:51;;;;;;;;;;;;;;;;;;4183562;28;19921;-65
2023/12/10 06:21:52;;;;;;;;;;;;;;;;;;4183292;28;19967;-65
2023/12/10 06:23:54;;;;;;;;;;;;;;;;;;4183207;28;19974;-65
2023/12/10 06:25:55;;;;;;;;;;;;;;;;;;4169064;28;19925;-65
2023/12/10 06:27:57;;;;;;;;;;;;;;;;;;4166931;28;19921;-65
2023/12/10 06:29:58;;;;;;;;;;;;;;;;;;4166681;28;19921;-66
2023/12/10 06:32:00;;;;;;;;;;;;;;;;;;4152499;28;20400;-66
2023/12/10 06:34:01;;;;;;;;;;;;;;;;;;4155790;28;19921;-67
2023/12/10 06:36:03;;;;;;;;;;;;;;;;;;4166630;28;19928;-66
2023/12/10 06:38:04;;;;;;;;;;;;;;;;;;4166835;28;20092;-66
2023/12/10 06:40:06;;;;;;;;;;;;;;;;;;4165392;28;20376;-66
2023/12/10 06:42:07;;;;;;;;;;;;;;;;;;4150099;28;19927;-65
2023/12/10 06:44:09;;;;;;;;;;;;;;;;;;4155546;28;19924;-66
2023/12/10 06:46:13;;;;;;;;;;;;;;;;;;4150141;28;19925;-66
2023/12/10 06:48:14;;;;;;;;;;;;;;;;;;4164137;28;19928;-66
2023/12/10 06:50:16;;;;;;;;;;;;;;;;;;4152823;28;19929;-66
2023/12/10 06:52:17;;;;;;;;;;;;;;;;;;4150116;28;19921;-65
2023/12/10 06:54:19;;;;;;;;;;;;;;;;;;4155211;28;20312;-66
2023/12/10 06:56:20;;;;;;;;;;;;;;;;;;4164847;28;19925;-65
2023/12/10 06:58:22;;;;;;;;;;;;;;;;;;4160506;28;19925;-66
2023/12/10 07:00:24;;;;;;;;;;;;;;;;;;4157711;28;19921;-65
2023/12/10 07:02:27;;;;;;;;;;;;;;;;;;4157490;28;19983;-66
2023/12/10 07:04:29;;;;;;;;;;;;;;;;;;4157920;28;19922;-66
2023/12/10 07:06:30;;;;;;;;;;;;;;;;;;4161577;28;19925;-66
2023/12/10 07:08:32;;;;;;;;;;;;;;;;;;4171333;28;19921;-66
2023/12/10 07:10:33;;;;;;;;;;;;;;;;;;4182397;28;20003;-66
2023/12/10 07:12:35;;;;;;;;;;;;;;;;;;4182546;28;20016;-65
2023/12/10 07:14:36;;;;;;;;;;;;;;;;;;4182404;28;20408;-66
2023/12/10 07:16:38;;;;;;;;;;;;;;;;;;4182290;28;19944;-66
2023/12/10 07:18:39;;;;;;;;;;;;;;;;;;4182233;28;20387;-66
2023/12/10 07:20:41;;;;;;;;;;;;;;;;;;4182243;28;19925;-66
2023/12/10 07:22:42;;;;;;;;;;;;;;;;;;4182362;28;19928;-66
2023/12/10 07:24:44;;;;;;;;;;;;;;;;;;4170252;28;20352;-66
2023/12/10 07:26:45;;;;;;;;;;;;;;;;;;4165729;28;19943;-66
2023/12/10 07:28:47;;;;;;;;;;;;;;;;;;4164532;28;19924;-66
2023/12/10 07:30:48;;;;;;;;;;;;;;;;;;4165761;28;20331;-67
2023/12/10 07:32:50;;;;;;;;;;;;;;;;;;4166206;28;20039;-66
2023/12/10 07:34:51;;;;;;;;;;;;;;;;;;4178091;28;19967;-66
2023/12/10 07:36:53;;;;;;;;;;;;;;;;;;4181984;28;19920;-66
2023/12/10 07:38:54;;;;;;;;;;;;;;;;;;4182137;28;19928;-66
2023/12/10 07:40:56;;;;;;;;;;;;;;;;;;4180412;28;19921;-66
2023/12/10 07:42:58;;;;;;;;;;;;;;;;;;4158937;28;19929;-66
2023/12/10 07:45:00;;;;;;;;;;;;;;;;;;4164525;28;19928;-66
2023/12/10 07:47:02;;;;;;;;;;;;;;;;;;4149433;28;19928;-66
2023/12/10 07:49:03;;;;;;;;;;;;;;;;;;4149048;28;19928;-66
2023/12/10 07:51:05;;;;;;;;;;;;;;;;;;4148920;28;19922;-66
2023/12/10 07:53:06;;;;;;;;;;;;;;;;;;4166537;28;19929;-66
2023/12/10 07:55:08;;;;;;;;;;;;;;;;;;4180356;28;20016;-66
2023/12/10 07:57:09;;;;;;;;;;;;;;;;;;4165504;28;19925;-69
2023/12/10 07:59:11;;;;;;;;;;;;;;;;;;4165410;28;19921;-69
2023/12/10 08:01:12;;;;;;;;;;;;;;;;;;4164975;28;20187;-69
2023/12/10 08:03:14;;;;;;;;;;;;;;;;;;4165013;28;20278;-69
2023/12/10 08:05:15;;;;;;;;;;;;;;;;;;4165230;28;19968;-69
2023/12/10 08:07:17;;;;;;;;;;;;;;;;;;4159628;28;19929;-69
2023/12/10 08:09:18;;;;;;;;;;;;;;;;;;4174961;28;20311;-69
2023/12/10 08:11:19;;;;;;;;;;;;;;;;;;4181089;28;19975;-69
2023/12/10 08:13:21;;;;;;;;;;;;;;;;;;4181095;28;19929;-69
2023/12/10 08:15:24;;;;;;;;;;;;;;;;;;4153911;28;19921;-69
2023/12/10 08:17:25;;;;;;;;;;;;;;;;;;4164766;28;19991;-69
2023/12/10 08:19:27;;;;;;;;;;;;;;;;;;4164949;28;19924;-68
2023/12/10 08:21:28;;;;;;;;;;;;;;;;;;4164516;28;19920;-68
2023/12/10 08:23:30;;;;;;;;;;;;;;;;;;4165026;28;20381;-69
2023/12/10 08:25:31;;;;;;;;;;;;;;;;;;4164853;28;19924;-67
2023/12/10 08:27:33;;;;;;;;;;;;;;;;;;4164568;28;19921;-67
2023/12/10 08:29:35;;;;;;;;;;;;;;;;;;4163786;28;20435;-67
2023/12/10 08:31:36;;;;;;;;;;;;;;;;;;4147288;28;19929;-67
2023/12/10 08:33:38;;;;;;;;;;;;;;;;;;4164883;28;19921;-67
2023/12/10 08:35:39;;;;;;;;;;;;;;;;;;4164997;28;19921;-67
2023/12/10 08:37:41;;;;;;;;;;;;;;;;;;4164842;28;19920;-67
2023/12/10 08:39:42;;;;;;;;;;;;;;;;;;4164620;28;20352;-67
2023/12/10 08:41:44;;;;;;;;;;;;;;;;;;4159710;28;19928;-67
2023/12/10 08:43:45;;;;;;;;;;;;;;;;;;4148418;28;19961;-67
2023/12/10 08:45:46;;;;;;;;;;;;;;;;;;4148632;28;19988;-67
2023/12/10 08:47:48;;;;;;;;;;;;;;;;;;4148546;28;19932;-67
2023/12/10 08:49:50;;;;;;;;;;;;;;;;;;4148416;28;19935;-67
2023/12/10 08:51:51;;;;;;;;;;;;;;;;;;4148660;28;20305;-67
2023/12/10 08:53:53;;;;;;;;;;;;;;;;;;4163647;28;19925;-62
2023/12/10 08:55:54;;;;;;;;;;;;;;;;;;4180989;28;19966;-63
2023/12/10 08:57:56;;;;;;;;;;;;;;;;;;4176940;28;19932;-62
2023/12/10 09:00:00;;;;;;;;;;;;;;;;;;4164558;28;19924;-61
2023/12/10 09:02:02;;;;;;;;;;;;;;;;;;4164400;28;19925;-62
2023/12/10 09:04:05;;;;;;;;;;;;;;;;;;4164087;28;19971;-61
2023/12/10 09:06:07;;;;;;;;;;;;;;;;;;4146898;28;19921;-61
2023/12/10 09:08:08;;;;;;;;;;;;;;;;;;4166464;28;19921;-60
2023/12/10 09:10:10;;;;;;;;;;;;;;;;;;4181052;28;20383;-60
2023/12/10 09:12:13;;;;;;;;;;;;;;;;;;4180707;28;20347;-60
2023/12/10 09:14:14;;;;;;;;;;;;;;;;;;4181049;28;20007;-59
2023/12/10 09:16:16;;;;;;;;;;;;;;;;;;4176911;28;19971;-59
2023/12/10 09:18:17;;;;;;;;;;;;;;;;;;4164462;28;19932;-61
2023/12/10 09:20:19;;;;;;;;;;;;;;;;;;4164027;28;19921;-61
2023/12/10 09:22:21;;;;;;;;;;;;;;;;;;4165183;28;19959;-61
2023/12/10 09:24:26;;;;;;;;;;;;;;;;;;4167646;28;20277;-61
2023/12/10 09:26:30;;;;;;;;;;;;;;;;;;4167392;28;20021;-61
2023/12/10 09:28:31;;;;;;;;;;;;;;;;;;4167804;28;19947;-62
2023/12/10 09:30:33;;;;;;;;;;;;;;;;;;4167545;28;19921;-61
2023/12/10 09:32:34;;;;;;;;;;;;;;;;;;4167720;28;20289;-62
2023/12/10 09:34:37;;;;;;;;;;;;;;;;;;4159236;28;20068;-61
2023/12/10 09:36:39;;;;;;;;;;;;;;;;;;4162507;28;19978;-61
2023/12/10 09:38:41;;;;;;;;;;;;;;;;;;4160466;28;19932;-61
2023/12/10 09:40:42;;;;;;;;;;;;;;;;;;4164775;28;19932;-61
2023/12/10 09:42:44;;;;;;;;;;;;;;;;;;4165512;28;19991;-61
2023/12/10 09:44:45;;;;;;;;;;;;;;;;;;4166741;28;19921;-62
2023/12/10 09:46:47;;;;;;;;;;;;;;;;;;4165660;28;20284;-61
2023/12/10 09:48:48;;;;;;;;;;;;;;;;;;4166343;28;19967;-61
2023/12/10 09:50:50;;;;;;;;;;;;;;;;;;4165759;28;19921;-61
2023/12/10 09:52:53;;;;;;;;;;;;;;;;;;4159789;28;19948;-61
2023/12/10 09:54:55;;;;;;;;;;;;;;;;;;4174321;28;20008;-61
2023/12/10 09:56:56;;;;;;;;;;;;;;;;;;4165708;28;20011;-61
2023/12/10 09:58:58;;;;;;;;;;;;;;;;;;4166943;28;19943;-61
2023/12/10 10:01:04;;;;;;;;;;;;;;;;;;4165210;28;19964;-61
2023/12/10 10:03:06;;;;;;;;;;;;;;;;;;4166783;28;20288;-61
2023/12/10 10:05:07;;;;;;;;;;;;;;;;;;4166457;28;19921;-61
2023/12/10 10:07:09;;;;;;;;;;;;;;;;;;4166133;28;19956;-61
2023/12/10 10:09:10;;;;;;;;;;;;;;;;;;4177243;28;20243;-61
2023/12/10 10:11:22;;;;;;;;;;;;;;;;;;4183687;28;19925;-61
2023/12/10 10:13:24;;;;;;;;;;;;;;;;;;4172077;28;19925;-61
2023/12/10 10:15:26;;;;;;;;;;;;;;;;;;4166745;28;19921;-61
2023/12/10 10:17:28;;;;;;;;;;;;;;;;;;4167067;28;19924;-61
2023/12/10 10:19:30;;;;;;;;;;;;;;;;;;4166806;28;19921;-61
2023/12/10 10:21:32;;;;;;;;;;;;;;;;;;4166819;28;20478;-61
2023/12/10 10:23:33;;;;;;;;;;;;;;;;;;4166884;28;19963;-61
2023/12/10 10:25:35;;;;;;;;;;;;;;;;;;4166709;28;19921;-61
2023/12/10 10:27:36;;;;;;;;;;;;;;;;;;4166862;28;20273;-61
2023/12/10 10:29:37;;;;;;;;;;;;;;;;;;4166847;28;19921;-60
2023/12/10 10:31:40;;;;;;;;;;;;;;;;;;4166138;28;20015;-60
2023/12/10 10:33:41;;;;;;;;;;;;;;;;;;4168736;28;19960;-61
2023/12/10 10:35:43;;;;;;;;;;;;;;;;;;4175126;28;19967;-61
2023/12/10 10:37:44;;;;;;;;;;;;;;;;;;4183250;28;19975;-59
2023/12/10 10:39:48;;;;;;;;;;;;;;;;;;4171754;28;20379;-60
2023/12/10 10:41:49;;;;;;;;;;;;;;;;;;4162958;28;19971;-59
2023/12/10 10:43:51;;;;;;;;;;;;;;;;;;4165781;28;19952;-60
2023/12/10 10:45:52;;;;;;;;;;;;;;;;;;4162708;28;19925;-60
2023/12/10 10:47:54;;;;;;;;;;;;;;;;;;4160519;28;20363;-61
2023/12/10 10:49:56;;;;;;;;;;;;;;;;;;4166082;28;19921;-61
2023/12/10 10:52:17;;;;;;;;;;;;;;;;;;4150269;28;20024;-61
2023/12/10 10:54:18;;;;;;;;;;;;;;;;;;4172831;28;19921;-61
2023/12/10 10:56:20;;;;;;;;;;;;;;;;;;4182283;28;19921;-61
2023/12/10 10:58:21;;;;;;;;;;;;;;;;;;4160433;28;19932;-61
2023/12/10 11:00:23;;;;;;;;;;;;;;;;;;4165899;28;19990;-61
2023/12/10 11:02:24;;;;;;;;;;;;;;;;;;4166210;28;19921;-61
2023/12/10 11:04:26;;;;;;;;;;;;;;;;;;4163725;28;19921;-61
2023/12/10 11:06:28;;;;;;;;;;;;;;;;;;4165908;28;19932;-61
2023/12/10 11:08:29;;;;;;;;;;;;;;;;;;4168309;28;20273;-60
2023/12/10 11:10:30;;;;;;;;;;;;;;;;;;4161098;28;19927;-61
2023/12/10 11:12:32;;;;;;;;;;;;;;;;;;4162472;28;20007;-61
2023/12/10 11:14:33;;;;;;;;;;;;;;;;;;4164238;28;19979;-61
2023/12/10 11:16:35;;;;;;;;;;;;;;;;;;4165086;28;19932;-61
2023/12/10 11:18:36;;;;;;;;;;;;;;;;;;4166014;28;19929;-61
2023/12/10 11:20:38;;;;;;;;;;;;;;;;;;4165481;28;20020;-61
2023/12/10 11:22:39;;;;;;;;;;;;;;;;;;4163980;28;19925;-60
2023/12/10 11:24:41;;;;;;;;;;;;;;;;;;4164957;28;19921;-61
2023/12/10 11:26:43;;;;;;;;;;;;;;;;;;4158842;28;20266;-61
2023/12/10 11:28:44;;;;;;;;;;;;;;;;;;4164703;28;19976;-61
2023/12/10 11:30:46;;;;;;;;;;;;;;;;;;4162734;28;19921;-61
2023/12/10 11:32:48;;;;;;;;;;;;;;;;;;4158694;28;20059;-60
2023/12/10 11:34:49;;;;;;;;;;;;;;;;;;4164166;28;19925;-61
2023/12/10 11:36:51;;;;;;;;;;;;;;;;;;4161841;28;19932;-61
2023/12/10 11:38:53;;;;;;;;;;;;;;;;;;4160887;28;20039;-61
2023/12/10 11:40:56;;;;;;;;;;;;;;;;;;4162118;28;19921;-61
2023/12/10 11:42:58;;;;;;;;;;;;;;;;;;4164907;28;19920;-61
2023/12/10 11:44:59;;;;;;;;;;;;;;;;;;4159854;28;19983;-61
2023/12/10 11:47:05;;;;;;;;;;;;;;;;;;4161609;28;20019;-61
2023/12/10 11:49:06;;;;;;;;;;;;;;;;;;4163172;28;19952;-59
2023/12/10 11:51:08;;;;;;;;;;;;;;;;;;4164874;28;20297;-57
2023/12/10 11:53:10;;;;;;;;;;;;;;;;;;4159995;28;19924;-64
2023/12/10 11:55:11;;;;;;;;;;;;;;;;;;4165167;28;19927;-65
2023/12/10 11:57:12;;;;;;;;;;;;;;;;;;4165794;28;20296;-65
2023/12/10 11:59:14;;;;;;;;;;;;;;;;;;4164694;28;20439;-64
2023/12/10 12:01:15;;;;;;;;;;;;;;;;;;4165194;28;19925;-65
2023/12/10 12:03:17;;;;;;;;;;;;;;;;;;4164789;28;19921;-65
2023/12/10 12:05:18;;;;;;;;;;;;;;;;;;4163604;28;19925;-64
2023/12/10 12:07:20;;;;;;;;;;;;;;;;;;4161971;28;20377;-65
2023/12/10 12:09:21;;;;;;;;;;;;;;;;;;4166595;28;20343;-65
2023/12/10 12:11:23;;;;;;;;;;;;;;;;;;4162095;28;19928;-65
2023/12/10 12:13:27;;;;;;;;;;;;;;;;;;4160599;28;19931;-65
2023/12/10 12:15:29;;;;;;;;;;;;;;;;;;4160543;28;19921;-65
2023/12/10 12:17:30;;;;;;;;;;;;;;;;;;4165030;28;19987;-64
2023/12/10 12:19:32;;;;;;;;;;;;;;;;;;4165053;28;19960;-65
2023/12/10 12:21:34;;;;;;;;;;;;;;;;;;4162984;28;19998;-66
2023/12/10 12:23:35;;;;;;;;;;;;;;;;;;4160054;28;19928;-65
2023/12/10 12:25:40;;;;;;;;;;;;;;;;;;4159692;28;19928;-65
2023/12/10 12:27:41;;;;;;;;;;;;;;;;;;4159136;28;20355;-65
2023/12/10 12:29:43;;;;;;;;;;;;;;;;;;4164554;28;19921;-65
2023/12/10 12:31:44;;;;;;;;;;;;;;;;;;4158591;28;20308;-64
2023/12/10 12:34:05;;;;;;;;;;;;;;;;;;4167755;28;19955;-64
2023/12/10 12:36:06;;;;;;;;;;;;;;;;;;4173414;28;19921;-65
2023/12/10 12:38:08;;;;;;;;;;;;;;;;;;4162606;28;19921;-65
2023/12/10 12:40:10;;;;;;;;;;;;;;;;;;4157250;28;20293;-65
2023/12/10 12:42:12;;;;;;;;;;;;;;;;;;4162685;28;19921;-65
2023/12/10 12:44:13;;;;;;;;;;;;;;;;;;4163237;28;20011;-65
2023/12/10 12:46:16;;;;;;;;;;;;;;;;;;4159478;28;19929;-65
2023/12/10 12:48:18;;;;;;;;;;;;;;;;;;4164884;28;19925;-64
2023/12/10 12:50:20;;;;;;;;;;;;;;;;;;4162662;28;20364;-64
2023/12/10 12:52:21;;;;;;;;;;;;;;;;;;4164688;28;19921;-64
2023/12/10 12:54:23;;;;;;;;;;;;;;;;;;4176649;28;19920;-64
2023/12/10 12:56:24;;;;;;;;;;;;;;;;;;4162009;28;19924;-65
2023/12/10 12:58:26;;;;;;;;;;;;;;;;;;4163895;28;19925;-65
2023/12/10 13:00:27;;;;;;;;;;;;;;;;;;4158200;28;19937;-64
2023/12/10 13:02:29;;;;;;;;;;;;;;;;;;4159045;28;19925;-64
2023/12/10 13:04:30;;;;;;;;;;;;;;;;;;4154615;28;19991;-64
2023/12/10 13:06:32;;;;;;;;;;;;;;;;;;4156943;28;19952;-64
2023/12/10 13:08:34;;;;;;;;;;;;;;;;;;4162607;28;19921;-65
2023/12/10 13:10:37;;;;;;;;;;;;;;;;;;4164047;28;19959;-64
2023/12/10 13:12:39;;;;;;;;;;;;;;;;;;4161413;28;20700;-64
2023/12/10 13:14:40;;;;;;;;;;;;;;;;;;4159457;28;20295;-65
2023/12/10 13:16:43;;;;;;;;;;;;;;;;;;4157309;28;20388;-65
2023/12/10 13:18:45;;;;;;;;;;;;;;;;;;4160588;28;20267;-65
2023/12/10 13:20:47;;;;;;;;;;;;;;;;;;4164063;28;19943;-65
2023/12/10 13:22:49;;;;;;;;;;;;;;;;;;4161927;28;19921;-64
2023/12/10 13:24:50;;;;;;;;;;;;;;;;;;4162506;28;20019;-65
2023/12/10 13:26:51;;;;;;;;;;;;;;;;;;4164519;28;20292;-65
2023/12/10 13:28:53;;;;;;;;;;;;;;;;;;4164305;28;20347;-65
2023/12/10 13:30:54;;;;;;;;;;;;;;;;;;4164165;28;19925;-65
2023/12/10 13:32:56;;;;;;;;;;;;;;;;;;4164643;28;20004;-65
2023/12/10 13:34:58;;;;;;;;;;;;;;;;;;4162416;28;19921;-64
2023/12/10 13:36:59;;;;;;;;;;;;;;;;;;4162161;28;19925;-64
2023/12/10 13:39:02;;;;;;;;;;;;;;;;;;4163144;28;19995;-65
2023/12/10 13:41:04;;;;;;;;;;;;;;;;;;4162037;28;19927;-64
2023/12/10 13:43:06;;;;;;;;;;;;;;;;;;4163504;28;19964;-65
2023/12/10 13:45:08;;;;;;;;;;;;;;;;;;4160265;28;19964;-65
2023/12/10 13:47:12;;;;;;;;;;;;;;;;;;4161883;28;19925;-65
2023/12/10 13:49:13;;;;;;;;;;;;;;;;;;4161604;28;20278;-64
2023/12/10 13:51:15;;;;;;;;;;;;;;;;;;4162687;28;20383;-64